CheckWX is a tool to help pilots better visualize weather data.  It is not intended as a substitute for an official pre-flight weather briefing.

04:56:59 UTC

UIII METAR
Irkutsk Airport
Irkutsk, Russian Federation
Current

27 mins ago

UIII 270430Z VRB01MPS 9999 BKN015CB 16/13 Q1006 R12/290155 NOSIG RMK QFE712/0950
Observed
Jun-27 @ 04:30 UTC
Wind
  • Variable at 2 KTS
Visibility
10,000+ meters
Flight Rules
MVFR
Cloud Levels
  • Broken at 1,500' AGL
Temperature
16°C / 61°F
Dewpoint
13°C / 55°F
Humidity
83%
Altimeter
29.7" Hg
Pressure
1005.92 hPa
Previous

57 mins ago

UIII 270400Z VRB01MPS 9999 BKN014CB 15/14 Q1006 R12/290155 NOSIG RMK QFE712/0950
Observed
Jun-27 @ 04:00 UTC
Wind
  • Variable at 2 KTS
Visibility
10,000+ meters
Flight Rules
MVFR
Cloud Levels
  • Broken at 1,400' AGL
Temperature
15°C / 59°F
Dewpoint
14°C / 57°F
Humidity
94%
Altimeter
29.7" Hg
Pressure
1005.92 hPa
Previous

1 hour ago

UIII 270330Z 16002MPS 110V230 9999 BKN009CB 14/13 Q1006 R12/290155 NOSIG RMK QBB280 QFE712/0950
Observed
Jun-27 @ 03:30 UTC
Wind
  • 160° at 4 KTS
Visibility
10,000+ meters
Flight Rules
IFR
Cloud Levels
  • Broken at 900' AGL
Temperature
14°C / 57°F
Dewpoint
13°C / 55°F
Humidity
94%
Altimeter
29.7" Hg
Pressure
1005.92 hPa